Time;durP1;ratioP1;P1;durP2;ratioP2;P2;SDS_P1;SDS_P2;PMS_P1;PMS_P2;Temp;Humidity;BMP_temperature;BMP_pressure;BME280_temperature;BME280_humidity;BME280_pressure;Samples;Min_cycle;Max_cycle;Signal;HPM_P1;HPM_P2
2022/10/19 00:00:47;;;;;;;29.52;19.02;;;;;;;8.57;100.00;102142.78;4976981;28;20049;-78
2022/10/19 00:03:13;;;;;;;25.52;15.63;;;;;;;8.57;100.00;102142.78;4975140;28;20134;-77
2022/10/19 00:05:41;;;;;;;24.00;12.77;;;;;;;8.54;100.00;102138.59;4975265;28;20087;-78
2022/10/19 00:08:08;;;;;;;24.00;14.00;;;;;;;8.51;100.00;102149.25;4974629;28;20055;-77
2022/10/19 00:10:35;;;;;;;26.98;17.13;;;;;;;8.44;100.00;102140.22;4974707;28;20046;-77
2022/10/19 00:13:02;;;;;;;34.42;17.77;;;;;;;8.45;100.00;102154.91;4980497;28;20081;-78
2022/10/19 00:15:28;;;;;;;31.40;13.88;;;;;;;8.46;100.00;102140.09;4992366;28;20506;-77
2022/10/19 00:17:56;;;;;;;26.90;13.48;;;;;;;8.42;100.00;102139.47;4993869;28;20257;-78
2022/10/19 00:20:22;;;;;;;22.63;13.07;;;;;;;8.41;100.00;102136.97;4994191;28;20072;-78
2022/10/19 00:22:51;;;;;;;23.35;12.50;;;;;;;8.39;100.00;102134.47;4995125;28;20061;-79
2022/10/19 00:25:17;;;;;;;21.33;13.18;;;;;;;8.40;100.00;102140.53;4996921;28;20141;-78
2022/10/19 00:27:47;;;;;;;28.60;13.10;;;;;;;8.36;100.00;102139.06;4993907;28;20133;-78
2022/10/19 00:30:14;;;;;;;25.60;11.70;;;;;;;8.32;100.00;102139.25;5020192;23;20520;-79
2022/10/19 00:32:40;;;;;;;22.58;12.93;;;;;;;8.33;100.00;102137.50;4997533;28;20118;-79
2022/10/19 00:35:08;;;;;;;24.30;11.70;;;;;;;8.31;100.00;102121.91;5001052;28;20097;-78
2022/10/19 00:37:34;;;;;;;18.85;12.93;;;;;;;8.26;100.00;102131.81;5000786;28;20082;-78
2022/10/19 00:40:03;;;;;;;23.83;11.88;;;;;;;8.23;100.00;102133.81;4998875;28;20461;-78
2022/10/19 00:42:30;;;;;;;15.23;10.50;;;;;;;8.23;100.00;102134.63;4999881;28;20464;-78
2022/10/19 00:45:04;;;;;;;19.67;11.90;;;;;;;8.18;100.00;102139.31;4999725;28;20322;-78
2022/10/19 00:47:31;;;;;;;23.40;10.98;;;;;;;8.15;100.00;102142.13;4998106;28;20047;-78
2022/10/19 00:49:59;;;;;;;16.42;11.05;;;;;;;8.11;100.00;102145.06;4979674;28;20082;-78
2022/10/19 00:52:27;;;;;;;22.10;10.98;;;;;;;8.09;100.00;102145.16;4980565;28;20062;-78
2022/10/19 00:54:56;;;;;;;17.35;10.13;;;;;;;8.02;100.00;102143.94;4981137;28;20162;-78
2022/10/19 00:57:28;;;;;;;17.90;9.90;;;;;;;8.01;100.00;102149.25;4980250;28;20089;-78
2022/10/19 00:59:55;;;;;;;19.23;10.53;;;;;;;8.02;100.00;102140.47;4979732;28;20051;-78
2022/10/19 01:02:22;;;;;;;22.13;11.02;;;;;;;7.96;100.00;102149.53;4980918;28;20293;-77
2022/10/19 01:04:51;;;;;;;15.27;10.95;;;;;;;8.01;100.00;102146.63;4980370;28;20274;-79
2022/10/19 01:07:18;;;;;;;20.75;10.73;;;;;;;7.99;100.00;102141.53;4980881;28;20054;-79
2022/10/19 01:09:45;;;;;;;21.52;11.20;;;;;;;7.99;100.00;102133.69;4984615;28;20053;-78
2022/10/19 01:12:37;;;;;;;24.45;11.38;;;;;;;7.97;100.00;102149.44;4985211;28;20242;-81
2022/10/19 01:15:17;;;;;;;25.48;12.23;;;;;;;7.98;100.00;102147.66;4990428;28;20115;-78
2022/10/19 01:17:55;;;;;;;23.40;11.85;;;;;;;7.93;100.00;102141.94;4985086;28;20129;-78
2022/10/19 01:20:56;;;;;;;24.75;11.13;;;;;;;7.88;100.00;102144.00;4983375;28;20082;-77
2022/10/19 01:23:39;;;;;;;23.60;11.48;;;;;;;7.94;100.00;102133.16;4978264;28;20137;-77
2022/10/19 01:26:12;;;;;;;;;;;;;;;7.92;100.00;102132.44;4978876;28;20129;-77
2022/10/19 01:28:50;;;;;;;20.17;11.00;;;;;;;7.89;100.00;102130.03;4979735;28;19984;-77
2022/10/19 01:31:27;;;;;;;21.75;11.43;;;;;;;7.96;100.00;102133.91;4996515;28;20307;-76
2022/10/19 01:34:03;;;;;;;21.60;11.73;;;;;;;7.98;100.00;102125.03;4998870;28;20458;-78
2022/10/19 01:36:37;;;;;;;26.00;12.35;;;;;;;7.95;100.00;102122.66;4999692;28;20072;-77
2022/10/19 01:39:10;;;;;;;24.05;11.32;;;;;;;7.87;100.00;102111.06;4997734;28;20046;-77
2022/10/19 01:41:47;;;;;;;21.30;12.55;;;;;;;7.85;100.00;102118.97;5000095;28;20050;-77
2022/10/19 01:44:19;;;;;;;25.13;11.75;;;;;;;7.81;100.00;102111.47;4996154;28;20106;-77
2022/10/19 01:46:51;;;;;;;19.20;11.73;;;;;;;7.76;100.00;102119.56;4982222;28;20078;-77
2022/10/19 01:49:23;;;;;;;23.58;12.90;;;;;;;7.72;100.00;102118.09;4980973;28;20085;-77
2022/10/19 01:51:56;;;;;;;27.88;12.00;;;;;;;7.79;100.00;102108.97;4995923;28;20097;-77
2022/10/19 01:54:26;;;;;;;23.33;12.13;;;;;;;7.77;100.00;102105.63;4999007;28;20097;-76
2022/10/19 01:56:56;;;;;;;22.23;11.90;;;;;;;7.69;100.00;102100.06;4994060;28;20113;-78
2022/10/19 01:59:23;;;;;;;20.67;12.45;;;;;;;7.65;100.00;102102.03;4983104;28;20109;-78
2022/10/19 02:01:53;;;;;;;24.88;12.13;;;;;;;7.58;100.00;102103.38;4998168;28;20054;-77
2022/10/19 02:04:22;;;;;;;21.52;11.20;;;;;;;7.48;100.00;102104.94;4998789;28;20141;-77
2022/10/19 02:06:50;;;;;;;19.33;11.20;;;;;;;7.43;100.00;102107.00;4997400;28;20117;-77
2022/10/19 02:09:19;;;;;;;16.05;11.05;;;;;;;7.42;100.00;102105.34;4997681;28;20420;-77
2022/10/19 02:11:47;;;;;;;22.17;11.35;;;;;;;7.43;100.00;102103.56;4997774;28;20367;-77
2022/10/19 02:14:17;;;;;;;18.83;11.63;;;;;;;7.39;100.00;102102.94;4983578;28;20061;-77
2022/10/19 02:16:47;;;;;;;21.70;12.48;;;;;;;7.36;100.00;102100.53;4996282;28;20050;-77
2022/10/19 02:19:17;;;;;;;18.83;10.60;;;;;;;7.32;100.00;102099.88;4997128;28;20465;-77
2022/10/19 02:21:44;;;;;;;19.60;11.23;;;;;;;7.26;100.00;102096.84;4997183;28;20137;-77
2022/10/19 02:24:10;;;;;;;17.08;9.70;;;;;;;7.18;100.00;102091.28;4997509;28;20081;-76
2022/10/19 02:26:38;;;;;;;20.45;9.75;;;;;;;7.13;100.00;102090.75;5000679;28;20125;-76
2022/10/19 02:29:05;;;;;;;22.88;9.60;;;;;;;7.02;100.00;102091.44;4983385;28;20130;-77
2022/10/19 02:31:31;;;;;;;14.93;9.18;;;;;;;6.98;100.00;102090.81;4981448;28;20126;-77
2022/10/19 02:33:58;;;;;;;15.52;8.95;;;;;;;6.92;100.00;102090.34;4976890;28;20521;-77
2022/10/19 02:36:26;;;;;;;14.38;8.77;;;;;;;6.91;100.00;102093.88;4977151;28;20146;-77
2022/10/19 02:38:53;;;;;;;12.15;8.55;;;;;;;6.93;100.00;102087.66;4979056;28;20042;-77
2022/10/19 02:41:24;;;;;;;19.27;9.60;;;;;;;6.93;100.00;102082.44;4992736;28;20058;-77
2022/10/19 02:43:57;;;;;;;15.75;8.80;;;;;;;6.82;100.00;102073.66;4995275;28;20110;-77
2022/10/19 02:46:30;;;;;;;16.70;9.45;;;;;;;6.79;100.00;102069.47;5000260;28;20085;-77
2022/10/19 02:48:57;;;;;;;19.10;9.35;;;;;;;6.76;100.00;102071.44;5002127;28;20106;-77
2022/10/19 02:51:31;;;;;;;21.98;11.32;;;;;;;6.70;100.00;102059.63;4996353;28;20359;-77
2022/10/19 02:53:58;;;;;;;16.40;9.55;;;;;;;6.73;100.00;102059.44;4982113;28;20053;-77
2022/10/19 02:56:25;;;;;;;14.52;8.65;;;;;;;6.70;100.00;102062.25;4981256;28;20125;-77
2022/10/19 02:58:51;;;;;;;15.07;9.10;;;;;;;6.70;100.00;102072.66;4985126;28;20102;-79
2022/10/19 03:01:18;;;;;;;20.45;9.95;;;;;;;6.63;100.00;102071.34;4984335;28;20051;-76
2022/10/19 03:03:44;;;;;;;16.98;8.75;;;;;;;6.63;100.00;102066.16;4982855;28;20133;-77
2022/10/19 03:06:11;;;;;;;13.93;8.98;;;;;;;6.60;100.00;102062.00;4982523;28;20488;-78
2022/10/19 03:08:39;;;;;;;14.55;9.63;;;;;;;6.63;100.00;102058.34;4980772;28;20149;-77
2022/10/19 03:11:06;;;;;;;12.88;8.48;;;;;;;6.60;100.00;102050.75;4981047;28;20114;-77
2022/10/19 03:13:32;;;;;;;14.27;9.45;;;;;;;6.68;100.00;102055.47;4988242;28;20073;-77
2022/10/19 03:16:06;;;;;;;14.55;8.50;;;;;;;6.58;100.00;102050.03;4998864;28;20562;-77
2022/10/19 03:18:33;;;;;;;15.50;9.18;;;;;;;6.52;100.00;102047.81;4995619;28;20078;-77
2022/10/19 03:21:04;;;;;;;12.45;8.65;;;;;;;6.49;100.00;102042.78;4983169;28;20115;-77
2022/10/19 03:23:30;;;;;;;13.20;9.38;;;;;;;6.42;100.00;102047.53;4981154;28;20054;-77
2022/10/19 03:25:58;;;;;;;18.05;10.30;;;;;;;6.41;100.00;102052.81;4980986;28;20380;-76
2022/10/19 03:28:25;;;;;;;16.55;8.50;;;;;;;6.39;100.00;102052.06;4994846;28;20137;-77
2022/10/19 03:30:52;;;;;;;12.40;8.45;;;;;;;6.41;100.00;102050.22;4982034;28;20102;-77
2022/10/19 03:33:18;;;;;;;13.55;8.25;;;;;;;6.39;100.00;102049.47;4980901;28;20404;-78
2022/10/19 03:35:45;;;;;;;14.02;8.35;;;;;;;6.43;100.00;102057.00;4981025;28;20133;-77
2022/10/19 03:38:11;;;;;;;15.85;8.30;;;;;;;6.37;100.00;102056.53;4980156;28;20095;-77
2022/10/19 03:40:40;;;;;;;14.32;8.75;;;;;;;6.37;100.00;102059.13;4980220;28;20043;-77
2022/10/19 03:43:07;;;;;;;16.27;9.00;;;;;;;6.37;100.00;102061.75;4995759;28;20106;-78
2022/10/19 03:45:34;;;;;;;16.27;8.77;;;;;;;6.38;100.00;102060.81;4993368;28;20501;-77
2022/10/19 03:48:01;;;;;;;13.95;8.48;;;;;;;6.33;100.00;102064.53;4996855;28;20137;-77
2022/10/19 03:50:27;;;;;;;13.65;8.32;;;;;;;6.34;100.00;102062.75;4997579;28;20137;-77
2022/10/19 03:52:55;;;;;;;13.77;8.93;;;;;;;6.31;100.00;102058.59;4997828;28;20466;-76
2022/10/19 03:55:21;;;;;;;17.48;9.55;;;;;;;6.27;100.00;102062.28;4982279;28;20134;-76
2022/10/19 03:57:48;;;;;;;22.35;9.35;;;;;;;6.26;100.00;102068.41;4991674;28;20129;-77
2022/10/19 04:00:16;;;;;;;15.23;9.63;;;;;;;6.25;100.00;102064.16;5004651;28;20116;-77
2022/10/19 04:02:42;;;;;;;13.65;9.65;;;;;;;6.23;100.00;102060.81;4966294;28;20123;-78
2022/10/19 04:05:09;;;;;;;16.33;9.88;;;;;;;6.24;100.00;102066.84;4967705;28;20527;-77
2022/10/19 04:07:36;;;;;;;20.42;10.25;;;;;;;6.26;100.00;102063.22;5005042;28;20083;-77
2022/10/19 04:10:03;;;;;;;16.35;10.23;;;;;;;6.32;100.00;102070.66;5003963;28;20089;-77
2022/10/19 04:12:30;;;;;;;20.80;11.43;;;;;;;6.40;100.00;102072.78;4994142;28;20106;-77
2022/10/19 04:14:56;;;;;;;18.15;11.05;;;;;;;6.43;100.00;102069.16;4985744;28;20061;-78
2022/10/19 04:17:25;;;;;;;18.23;10.48;;;;;;;6.41;100.00;102074.47;5000424;28;20502;-77
2022/10/19 04:19:52;;;;;;;20.35;11.20;;;;;;;6.37;100.00;102077.34;5001086;28;20082;-78
2022/10/19 04:22:18;;;;;;;17.70;10.43;;;;;;;6.27;100.00;102077.88;4999346;28;20050;-77
2022/10/19 04:24:45;;;;;;;19.25;9.90;;;;;;;6.21;100.00;102077.41;5003750;28;20137;-78
2022/10/19 04:27:11;;;;;;;20.73;10.13;;;;;;;6.18;100.00;102070.66;5000692;28;20082;-77
2022/10/19 04:29:38;;;;;;;16.15;10.10;;;;;;;6.11;100.00;102066.78;4983578;28;20079;-77
2022/10/19 04:32:05;;;;;;;18.88;10.30;;;;;;;6.10;100.00;102078.09;4984423;28;20561;-78
2022/10/19 04:34:33;;;;;;;16.33;9.57;;;;;;;6.07;100.00;102080.88;4982320;28;20080;-77
2022/10/19 04:37:00;;;;;;;16.08;10.40;;;;;;;6.01;100.00;102070.84;4981436;28;20350;-77
2022/10/19 04:39:26;;;;;;;17.88;9.70;;;;;;;6.06;100.00;102074.00;4988949;28;20058;-77
2022/10/19 04:41:53;;;;;;;22.77;10.20;;;;;;;5.97;100.00;102070.19;5000660;28;20110;-77
2022/10/19 04:44:20;;;;;;;21.25;9.32;;;;;;;5.94;100.00;102065.16;4981257;28;20054;-77
2022/10/19 04:46:46;;;;;;;18.38;9.27;;;;;;;5.90;100.00;102062.84;4982050;28;20110;-78
2022/10/19 04:49:13;;;;;;;21.17;9.68;;;;;;;5.91;100.00;102065.34;4981283;28;20051;-77
2022/10/19 04:51:41;;;;;;;13.40;9.05;;;;;;;5.87;100.00;102068.19;4988009;28;20157;-77
2022/10/19 04:54:07;;;;;;;23.50;9.68;;;;;;;5.86;100.00;102056.97;5001707;28;20133;-77
2022/10/19 04:56:34;;;;;;;15.10;9.45;;;;;;;5.84;100.00;102057.97;4987394;28;20138;-78
2022/10/19 04:59:01;;;;;;;18.75;10.18;;;;;;;5.82;100.00;102065.84;4995537;28;20384;-78
2022/10/19 05:01:29;;;;;;;18.83;8.98;;;;;;;5.80;100.00;102074.66;4998901;28;20056;-78
2022/10/19 05:03:58;;;;;;;19.30;9.02;;;;;;;5.76;100.00;102068.81;4990424;28;20046;-78
2022/10/19 05:06:25;;;;;;;20.42;9.00;;;;;;;5.73;100.00;102068.16;4982266;28;20053;-77
2022/10/19 05:08:53;;;;;;;16.13;8.30;;;;;;;5.63;100.00;102066.13;4983034;28;20119;-77
2022/10/19 05:11:20;;;;;;;13.57;8.23;;;;;;;5.58;100.00;102080.28;4981218;28;20153;-77
2022/10/19 05:13:47;;;;;;;10.13;7.78;;;;;;;5.53;100.00;102064.13;4980733;28;20141;-77
2022/10/19 05:16:15;;;;;;;10.70;7.75;;;;;;;5.51;100.00;102065.97;4981385;28;20053;-78
2022/10/19 05:18:42;;;;;;;11.75;7.72;;;;;;;5.47;100.00;102060.13;4980237;28;20602;-78
2022/10/19 05:21:10;;;;;;;13.48;7.90;;;;;;;5.46;100.00;102058.47;4980727;28;20047;-77
2022/10/19 05:23:38;;;;;;;13.85;9.07;;;;;;;5.43;100.00;102068.19;4974833;28;20093;-77
2022/10/19 05:26:08;;;;;;;14.77;8.38;;;;;;;5.37;100.00;102061.56;4986372;28;20129;-77
2022/10/19 05:28:36;;;;;;;11.27;8.25;;;;;;;5.38;100.00;102063.25;4979800;28;20624;-77
2022/10/19 05:31:07;;;;;;;17.55;8.40;;;;;;;5.36;100.00;102061.66;4963772;28;20042;-77
2022/10/19 05:33:34;;;;;;;20.75;8.88;;;;;;;5.35;100.00;102068.59;4974461;28;20104;-77
2022/10/19 05:36:13;;;;;;;17.42;9.00;;;;;;;5.35;100.00;102066.00;4974019;28;20082;-77
2022/10/19 05:38:41;;;;;;;18.40;9.27;;;;;;;5.36;100.00;102067.69;4973602;28;20093;-78
2022/10/19 05:41:09;;;;;;;22.17;8.90;;;;;;;5.34;100.00;102065.19;4992703;28;20476;-77
2022/10/19 05:43:36;;;;;;;19.40;8.50;;;;;;;5.33;100.00;102057.47;4987160;28;20138;-78
2022/10/19 05:46:05;;;;;;;16.85;9.60;;;;;;;5.33;100.00;102060.06;4975847;28;20125;-78
2022/10/19 05:48:32;;;;;;;16.45;9.57;;;;;;;5.34;100.00;102048.78;4976210;28;20122;-78
2022/10/19 05:51:00;;;;;;;17.45;9.95;;;;;;;5.35;100.00;102058.22;4975450;28;20150;-77
2022/10/19 05:53:27;;;;;;;15.27;8.82;;;;;;;5.39;100.00;102051.94;4976601;28;20082;-77
2022/10/19 05:55:53;;;;;;;16.23;11.27;;;;;;;5.46;100.00;102050.66;4993599;28;20093;-78
2022/10/19 05:58:21;;;;;;;24.70;10.82;;;;;;;5.43;100.00;102043.06;4990308;28;20054;-77
2022/10/19 06:00:51;;;;;;;16.73;9.77;;;;;;;5.42;100.00;102051.75;4975519;28;20057;-76
2022/10/19 06:03:18;;;;;;;18.40;10.35;;;;;;;5.45;100.00;102055.94;4974065;28;20678;-77
2022/10/19 06:05:44;;;;;;;20.20;10.27;;;;;;;5.44;100.00;102054.28;4973666;28;20057;-77
2022/10/19 06:08:11;;;;;;;19.63;11.57;;;;;;;5.46;100.00;102048.06;4984297;28;20050;-77
2022/10/19 06:10:38;;;;;;;18.98;11.10;;;;;;;5.51;100.00;102040.03;4993274;28;20132;-77
2022/10/19 06:13:04;;;;;;;20.73;11.52;;;;;;;5.55;100.00;102052.75;4993033;28;20053;-77
2022/10/19 06:15:35;;;;;;;20.15;11.20;;;;;;;5.53;100.00;102048.56;4989876;28;20043;-77
2022/10/19 06:18:03;;;;;;;20.85;10.15;;;;;;;5.53;100.00;102051.16;4992175;28;20090;-77
2022/10/19 06:20:30;;;;;;;19.40;9.25;;;;;;;5.54;100.00;102060.63;4992597;28;20140;-76
2022/10/19 06:22:56;;;;;;;17.25;10.48;;;;;;;5.55;100.00;102064.88;4978102;28;20138;-77
2022/10/19 06:25:23;;;;;;;18.17;10.90;;;;;;;5.53;100.00;102061.53;4988854;28;20046;-77
2022/10/19 06:27:50;;;;;;;18.10;10.63;;;;;;;5.59;100.00;102069.81;4991767;28;20064;-75
2022/10/19 06:30:16;;;;;;;23.33;13.38;;;;;;;5.63;100.00;102075.66;5008154;23;20457;-78
2022/10/19 06:32:44;;;;;;;22.90;11.75;;;;;;;5.82;100.00;102081.44;4990265;28;20081;-79
2022/10/19 06:35:11;;;;;;;18.17;10.95;;;;;;;6.09;100.00;102084.22;4974820;28;20453;-78
2022/10/19 06:37:37;;;;;;;37.53;11.35;;;;;;;6.15;100.00;102083.81;4973875;28;20046;-79
2022/10/19 06:40:15;;;;;;;26.98;10.68;;;;;;;5.88;100.00;102075.88;4973313;28;20138;-80
2022/10/19 06:42:42;;;;;;;48.78;10.35;;;;;;;5.62;100.00;102074.84;4985329;28;20050;-79
2022/10/19 06:45:10;;;;;;;42.33;9.93;;;;;;;5.72;100.00;102072.50;4990397;28;20086;-79
2022/10/19 06:47:37;;;;;;;41.28;9.45;;;;;;;5.89;100.00;102076.75;4991689;28;20743;-79
2022/10/19 06:50:06;;;;;;;32.45;10.13;;;;;;;5.95;100.00;102063.41;4991465;28;20137;-79
2022/10/19 06:52:33;;;;;;;79.85;11.10;;;;;;;5.96;100.00;102054.69;4991388;28;20133;-79
2022/10/19 06:55:00;;;;;;;54.33;11.82;;;;;;;5.97;100.00;102064.16;4979840;28;20549;-79
2022/10/19 06:57:27;;;;;;;54.78;11.00;;;;;;;6.19;100.00;102064.50;4972395;28;20125;-81
2022/10/19 06:59:54;;;;;;;16.50;11.05;;;;;;;6.47;100.00;102068.88;4979632;28;20074;-79
2022/10/19 07:02:20;;;;;;;21.38;10.15;;;;;;;6.60;100.00;102064.59;4989650;28;20133;-76
2022/10/19 07:04:47;;;;;;;37.42;11.38;;;;;;;6.73;100.00;102069.84;4991264;28;20141;-77
2022/10/19 07:07:15;;;;;;;34.95;11.35;;;;;;;6.83;100.00;102073.56;4979875;28;20577;-77
2022/10/19 07:09:41;;;;;;;18.00;10.95;;;;;;;6.91;100.00;102062.66;4971327;28;20130;-77
2022/10/19 07:12:09;;;;;;;14.93;10.13;;;;;;;7.03;100.00;102079.28;4971966;28;20137;-76
2022/10/19 07:14:38;;;;;;;24.83;10.65;;;;;;;7.05;100.00;102078.25;4972837;28;20536;-77
2022/10/19 07:17:04;;;;;;;21.25;11.00;;;;;;;7.14;100.00;102087.22;4988983;28;20341;-77
2022/10/19 07:19:32;;;;;;;26.70;10.90;;;;;;;7.49;100.00;102079.72;4990458;28;20081;-77
2022/10/19 07:21:58;;;;;;;16.73;10.15;;;;;;;7.64;100.00;102068.28;4991330;28;20053;-76
2022/10/19 07:24:26;;;;;;;15.50;10.52;;;;;;;7.81;100.00;102070.59;4980357;28;20053;-77
2022/10/19 07:26:53;;;;;;;13.95;9.23;;;;;;;8.55;100.00;102077.66;4971885;28;20469;-78
2022/10/19 07:29:20;;;;;;;12.63;9.05;;;;;;;9.10;100.00;102081.56;4971108;28;20054;-78
2022/10/19 07:31:49;;;;;;;11.65;8.25;;;;;;;9.25;100.00;102082.22;4988841;28;20134;-77
2022/10/19 07:34:16;;;;;;;13.43;8.50;;;;;;;9.55;100.00;102073.91;4993794;28;20140;-77
2022/10/19 07:36:46;;;;;;;13.07;8.38;;;;;;;9.57;100.00;102072.84;4993559;28;20056;-77
2022/10/19 07:39:15;;;;;;;17.35;9.85;;;;;;;8.68;100.00;102074.19;4994311;28;20425;-76
2022/10/19 07:41:44;;;;;;;18.48;10.80;;;;;;;8.46;100.00;102070.50;4994793;28;20053;-78
2022/10/19 07:44:11;;;;;;;20.27;11.60;;;;;;;8.51;100.00;102071.00;4994854;28;20548;-77
2022/10/19 07:46:38;;;;;;;28.20;12.18;;;;;;;8.22;100.00;102059.94;4980741;28;20050;-77
2022/10/19 07:49:08;;;;;;;21.95;12.40;;;;;;;8.42;100.00;102070.81;4974795;28;20141;-77
2022/10/19 07:51:35;;;;;;;19.50;13.07;;;;;;;8.80;100.00;102082.00;4974858;28;20127;-76
2022/10/19 07:54:01;;;;;;;23.85;13.05;;;;;;;9.01;100.00;102089.22;4986489;28;20047;-77
2022/10/19 07:56:28;;;;;;;20.88;13.40;;;;;;;9.18;100.00;102081.00;4974786;28;20149;-74
2022/10/19 07:58:58;;;;;;;20.25;13.85;;;;;;;9.22;100.00;102083.28;4974725;28;20056;-77
2022/10/19 08:01:27;;;;;;;28.00;15.18;;;;;;;9.05;100.00;102085.44;4981648;28;20042;-77
2022/10/19 08:03:58;;;;;;;32.35;14.65;;;;;;;8.84;100.00;102067.78;4975249;28;20055;-77
2022/10/19 08:06:25;;;;;;;24.20;13.85;;;;;;;8.62;100.00;102073.69;4976227;28;20046;-77
2022/10/19 08:08:53;;;;;;;23.25;13.70;;;;;;;8.85;100.00;102064.22;4974815;28;20046;-77
2022/10/19 08:11:25;;;;;;;22.52;14.85;;;;;;;8.77;100.00;102063.09;4974860;28;20077;-77
2022/10/19 08:13:59;;;;;;;23.48;15.02;;;;;;;9.16;100.00;102070.66;4976551;28;20074;-77
2022/10/19 08:16:31;;;;;;;24.50;15.40;;;;;;;9.39;100.00;102083.84;4977604;28;20054;-77
2022/10/19 08:19:00;;;;;;;23.77;15.98;;;;;;;9.43;100.00;102080.88;4974953;28;20110;-77
2022/10/19 08:21:29;;;;;;;26.90;15.07;;;;;;;9.70;100.00;102077.16;4974897;28;20134;-76
2022/10/19 08:23:56;;;;;;;24.08;15.40;;;;;;;9.72;100.00;102064.81;4976325;28;20134;-78
2022/10/19 08:26:28;;;;;;;24.20;14.10;;;;;;;10.10;100.00;102065.31;4978429;28;20105;-78
2022/10/19 08:28:59;;;;;;;22.33;13.27;;;;;;;10.09;100.00;102055.81;4990043;28;20077;-78
2022/10/19 08:31:40;;;;;;;19.52;12.73;;;;;;;9.95;100.00;102056.88;4986748;28;20538;-80
2022/10/19 08:34:13;;;;;;;26.63;12.75;;;;;;;9.93;100.00;102050.09;4977500;28;20051;-79
2022/10/19 08:36:45;;;;;;;17.85;12.77;;;;;;;10.20;100.00;102055.84;4977063;28;20059;-79
2022/10/19 08:39:17;;;;;;;15.85;12.35;;;;;;;9.81;100.00;102038.81;4980628;28;20054;-79
2022/10/19 08:42:01;;;;;;;20.90;13.75;;;;;;;10.02;100.00;102040.72;4994882;28;20074;-77
2022/10/19 08:45:03;;;;;;;20.20;13.93;;;;;;;9.95;100.00;102027.28;4990842;28;20076;-78
2022/10/19 08:47:46;;;;;;;23.65;13.73;;;;;;;10.13;100.00;102030.25;4981563;28;20101;-78
2022/10/19 08:50:19;;;;;;;21.75;13.57;;;;;;;10.05;100.00;102022.16;4992787;28;20085;-78
2022/10/19 08:52:54;;;;;;;23.10;13.57;;;;;;;10.20;100.00;102021.84;4993794;28;20137;-78
2022/10/19 08:55:29;;;;;;;22.83;14.40;;;;;;;10.50;100.00;102021.22;4993848;28;20058;-79
2022/10/19 08:58:05;;;;;;;23.92;14.48;;;;;;;10.76;100.00;102023.53;4994463;28;20082;-79
2022/10/19 09:00:39;;;;;;;20.15;11.27;;;;;;;10.73;100.00;102022.00;4995055;28;20144;-79
2022/10/19 09:03:16;;;;;;;21.70;11.52;;;;;;;10.80;100.00;102017.94;4990393;28;20105;-78
2022/10/19 09:05:50;;;;;;;20.10;11.40;;;;;;;10.59;100.00;102019.66;4989947;28;20042;-78
2022/10/19 09:08:17;;;;;;;22.33;11.50;;;;;;;10.63;100.00;102015.84;4990218;28;20068;-77
2022/10/19 09:10:47;;;;;;;14.68;11.30;;;;;;;10.86;100.00;102022.69;4991483;28;20046;-77
2022/10/19 09:13:20;;;;;;;16.73;10.65;;;;;;;10.93;100.00;102015.13;4983739;28;20140;-79
2022/10/19 09:15:49;;;;;;;15.48;9.80;;;;;;;10.86;99.76;102017.44;4988227;28;20064;-78
2022/10/19 09:18:32;;;;;;;23.58;11.15;;;;;;;10.85;98.96;102009.72;4991985;28;20947;-79
2022/10/19 09:21:04;;;;;;;23.02;10.30;;;;;;;10.84;97.97;102014.13;4988312;28;20129;-78
2022/10/19 09:23:38;;;;;;;21.70;10.50;;;;;;;10.96;97.91;102013.09;4991607;28;20057;-79
2022/10/19 09:26:10;;;;;;;15.50;10.13;;;;;;;11.14;98.70;102007.31;4991439;28;20296;-77
2022/10/19 09:28:49;;;;;;;17.42;9.77;;;;;;;11.10;97.94;101991.03;4982977;28;20058;-79
2022/10/19 09:31:22;;;;;;;15.73;9.00;;;;;;;11.21;97.92;101995.38;4984477;28;20046;-78
2022/10/19 09:33:55;;;;;;;17.65;9.43;;;;;;;11.26;97.94;101994.06;4983495;28;20053;-76
2022/10/19 09:36:23;;;;;;;15.77;9.00;;;;;;;11.20;96.81;102005.03;4983903;28;20125;-78
2022/10/19 09:38:50;;;;;;;15.25;8.68;;;;;;;11.14;96.82;101991.59;4987900;28;20516;-78
2022/10/19 09:41:20;;;;;;;14.95;9.27;;;;;;;11.10;96.52;101990.19;4974250;28;20051;-78
2022/10/19 09:43:52;;;;;;;16.52;8.80;;;;;;;11.34;97.50;101995.22;4979138;28;20126;-80
2022/10/19 09:46:29;;;;;;;17.77;9.70;;;;;;;11.53;97.81;101997.94;4985200;28;20065;-79
2022/10/19 09:49:01;;;;;;;15.18;9.18;;;;;;;11.42;96.70;101993.59;4984247;28;20050;-80
2022/10/19 09:51:39;;;;;;;16.92;8.88;;;;;;;11.53;96.37;101992.69;4995725;28;20066;-80
2022/10/19 09:54:06;;;;;;;17.52;9.27;;;;;;;11.56;96.04;101995.88;4993834;28;20085;-79
2022/10/19 09:56:37;;;;;;;13.80;9.43;;;;;;;11.61;95.72;101991.09;4988232;28;20050;-79
2022/10/19 09:59:03;;;;;;;17.20;9.80;;;;;;;11.93;95.76;101982.28;4987936;28;20046;-80
2022/10/19 10:01:32;;;;;;;16.70;9.80;;;;;;;11.74;94.55;101982.19;4987206;28;20137;-79
2022/10/19 10:04:17;;;;;;;20.27;9.98;;;;;;;11.70;95.14;101983.41;4987578;28;20094;-80
2022/10/19 10:06:47;;;;;;;19.23;9.57;;;;;;;11.71;95.41;101982.44;4982413;28;20129;-79
2022/10/19 10:09:16;;;;;;;13.18;8.63;;;;;;;11.92;96.19;101991.13;4984743;28;20054;-79
2022/10/19 10:11:45;;;;;;;20.08;9.68;;;;;;;12.08;95.74;101991.47;4983122;28;20046;-77
2022/10/19 10:14:20;;;;;;;13.10;9.32;;;;;;;11.89;94.48;101978.28;4983556;28;20054;-79
2022/10/19 10:16:47;;;;;;;12.45;8.30;;;;;;;12.05;94.04;101970.75;4984672;28;20107;-79
2022/10/19 10:19:17;;;;;;;18.77;9.20;;;;;;;12.02;93.02;101957.06;4982275;28;20055;-77
2022/10/19 10:21:48;;;;;;;21.70;9.13;;;;;;;11.96;93.04;101951.38;4982938;28;20441;-80
2022/10/19 10:24:20;;;;;;;17.40;9.27;;;;;;;12.30;92.99;101961.53;4983485;28;20043;-79
2022/10/19 10:26:48;;;;;;;17.52;9.20;;;;;;;12.49;92.47;101956.34;4981293;28;20106;-78
2022/10/19 10:29:20;;;;;;;14.75;8.48;;;;;;;12.61;92.06;101947.38;4980497;28;20050;-78
2022/10/19 10:31:49;;;;;;;14.45;9.10;;;;;;;12.43;91.13;101949.00;4980816;28;20046;-79
2022/10/19 10:34:27;;;;;;;13.15;8.77;;;;;;;12.65;91.62;101957.63;4983390;28;20133;-78
2022/10/19 10:36:54;;;;;;;16.17;8.77;;;;;;;12.95;90.98;101953.03;4984105;28;20106;-79
2022/10/19 10:39:20;;;;;;;14.60;9.35;;;;;;;12.94;89.95;101948.75;4986677;28;20050;-77
2022/10/19 10:41:48;;;;;;;13.15;8.50;;;;;;;13.25;90.80;101938.09;4982307;28;20129;-78
2022/10/19 10:44:20;;;;;;;16.25;9.38;;;;;;;13.50;89.86;101926.97;4989645;28;20042;-79
2022/10/19 10:46:53;;;;;;;15.43;9.32;;;;;;;13.48;88.95;101926.28;4987737;28;20654;-78
2022/10/19 10:49:24;;;;;;;15.30;7.93;;;;;;;13.53;88.04;101924.03;4981839;28;20058;-79
2022/10/19 10:51:55;;;;;;;19.50;8.80;;;;;;;13.66;88.11;101925.53;4984428;28;20149;-78
2022/10/19 10:54:23;;;;;;;17.80;9.05;;;;;;;13.95;87.65;101923.56;4984667;28;20038;-79
2022/10/19 10:57:10;;;;;;;19.08;8.52;;;;;;;13.53;87.13;101925.84;4992294;28;20104;-79
2022/10/19 10:59:48;;;;;;;16.55;8.55;;;;;;;13.79;87.34;101915.47;4989770;28;20081;-79
2022/10/19 11:02:25;;;;;;;13.70;8.23;;;;;;;13.89;86.86;101911.00;4994562;28;20050;-80
2022/10/19 11:04:59;;;;;;;18.30;8.48;;;;;;;14.14;86.43;101910.31;4995485;28;20169;-78
2022/10/19 11:07:29;;;;;;;12.30;7.97;;;;;;;14.42;86.16;101900.59;4985908;28;20053;-80
2022/10/19 11:10:01;;;;;;;14.52;8.57;;;;;;;14.58;85.32;101892.00;4989110;28;20070;-79
2022/10/19 11:12:40;;;;;;;18.75;8.57;;;;;;;14.25;84.76;101889.03;4989261;28;20077;-79
2022/10/19 11:15:16;;;;;;;16.38;8.43;;;;;;;14.27;83.86;101884.44;4990580;28;20634;-78
2022/10/19 11:17:54;;;;;;;17.77;8.43;;;;;;;14.21;84.99;101868.41;4988156;28;20126;-79
2022/10/19 11:20:27;;;;;;;14.45;8.63;;;;;;;14.52;85.22;101880.28;4988162;28;20043;-78
2022/10/19 11:22:56;;;;;;;;;;;;;;;14.69;84.35;101880.38;4988851;28;20133;-79